createdAt,value
2024-04-21T00:00:35.331Z,100.00
2024-04-21T00:03:06.162Z,100.00
2024-04-21T00:05:36.134Z,100.00
2024-04-21T00:08:04.099Z,100.00
2024-04-21T00:10:33.646Z,100.00
2024-04-21T00:13:00.913Z,100.00
2024-04-21T00:15:30.474Z,100.00
2024-04-21T00:17:57.895Z,100.00
2024-04-21T00:20:30.010Z,100.00
2024-04-21T00:22:57.250Z,100.00
2024-04-21T00:25:26.801Z,100.00
2024-04-21T00:27:53.731Z,100.00
2024-04-21T00:30:23.494Z,100.00
2024-04-21T00:32:51.469Z,100.00
2024-04-21T00:35:21.001Z,100.00
2024-04-21T00:37:50.480Z,100.00
2024-04-21T00:40:23.496Z,100.00
2024-04-21T00:42:59.298Z,100.00
2024-04-21T00:45:35.526Z,100.00
2024-04-21T00:48:06.455Z,100.00
2024-04-21T00:50:36.881Z,100.00
2024-04-21T00:53:07.305Z,100.00
2024-04-21T00:55:37.037Z,100.00
2024-04-21T00:58:05.525Z,100.00
2024-04-21T01:00:36.009Z,100.00
2024-04-21T01:03:03.245Z,100.00
2024-04-21T01:05:32.977Z,100.00
2024-04-21T01:08:00.024Z,100.00
2024-04-21T01:13:13.781Z,100.00
2024-04-21T01:15:43.551Z,100.00
2024-04-21T01:18:10.533Z,100.00
2024-04-21T01:20:41.008Z,100.00
2024-04-21T01:23:10.337Z,100.00
2024-04-21T01:25:40.172Z,100.00
2024-04-21T01:28:07.312Z,100.00
2024-04-21T01:30:37.185Z,100.00
2024-04-21T01:33:04.527Z,100.00
2024-04-21T01:35:34.474Z,100.00
2024-04-21T01:38:01.329Z,100.00
2024-04-21T01:40:34.190Z,100.00
2024-04-21T01:43:01.085Z,100.00
2024-04-21T01:45:30.980Z,100.00
2024-04-21T01:47:58.261Z,100.00
2024-04-21T01:50:27.900Z,100.00
2024-04-21T01:52:55.183Z,100.00
2024-04-21T01:55:24.813Z,100.00
2024-04-21T01:57:55.560Z,100.00
2024-04-21T02:00:25.449Z,100.00
2024-04-21T02:02:52.402Z,100.00
2024-04-21T02:05:22.166Z,100.00
2024-04-21T02:07:49.137Z,100.00
2024-04-21T02:10:18.850Z,100.00
2024-04-21T02:12:46.209Z,100.00
2024-04-21T02:15:18.575Z,100.00
2024-04-21T02:17:45.849Z,100.00
2024-04-21T02:20:15.495Z,100.00
2024-04-21T02:22:42.797Z,100.00
2024-04-21T02:25:12.313Z,100.00
2024-04-21T02:27:40.070Z,100.00
2024-04-21T02:30:10.918Z,100.00
2024-04-21T02:32:40.868Z,100.00
2024-04-21T02:35:10.773Z,100.00
2024-04-21T02:37:37.978Z,100.00
2024-04-21T02:40:08.453Z,100.00
2024-04-21T02:42:35.088Z,100.00
2024-04-21T02:45:04.546Z,100.00
2024-04-21T02:47:31.578Z,100.00
2024-04-21T02:50:04.210Z,100.00
2024-04-21T02:52:31.460Z,100.00
2024-04-21T02:55:00.944Z,100.00
2024-04-21T02:57:27.829Z,100.00
2024-04-21T02:59:59.370Z,100.00
2024-04-21T03:02:27.319Z,100.00
2024-04-21T03:04:57.060Z,100.00
2024-04-21T03:07:26.595Z,100.00
2024-04-21T03:09:56.520Z,100.00
2024-04-21T03:12:23.419Z,100.00
2024-04-21T03:14:52.918Z,100.00
2024-04-21T03:17:22.856Z,100.00
2024-04-21T03:19:52.598Z,100.00
2024-04-21T03:22:19.515Z,100.00
2024-04-21T03:24:52.006Z,100.00
2024-04-21T03:27:18.960Z,100.00
2024-04-21T03:29:51.564Z,100.00
2024-04-21T03:32:18.484Z,100.00
2024-04-21T03:34:48.934Z,100.00
2024-04-21T03:37:20.242Z,100.00
2024-04-21T03:39:52.829Z,100.00
2024-04-21T03:42:22.669Z,100.00
2024-04-21T03:44:52.420Z,100.00
2024-04-21T03:47:19.722Z,100.00
2024-04-21T03:49:49.584Z,100.00
2024-04-21T03:52:16.878Z,100.00
2024-04-21T03:54:46.383Z,100.00
2024-04-21T03:57:18.476Z,100.00
2024-04-21T03:59:45.722Z,100.00
2024-04-21T04:02:15.681Z,100.00
2024-04-21T04:04:42.573Z,100.00
2024-04-21T04:07:12.094Z,100.00
2024-04-21T04:09:39.356Z,100.00
2024-04-21T04:12:09.506Z,100.00
2024-04-21T04:14:39.050Z,100.00
2024-04-21T04:17:08.670Z,100.00
2024-04-21T04:19:35.931Z,100.00
2024-04-21T04:22:05.437Z,100.00
2024-04-21T04:24:32.953Z,100.00
2024-04-21T04:27:02.424Z,100.00
2024-04-21T04:29:29.774Z,100.00
2024-04-21T04:32:02.245Z,100.00
2024-04-21T04:34:29.620Z,100.00
2024-04-21T04:36:59.125Z,100.00
2024-04-21T04:39:25.978Z,100.00
2024-04-21T04:41:55.855Z,100.00
2024-04-21T04:44:22.822Z,100.00
2024-04-21T04:46:52.433Z,100.00
2024-04-21T04:49:22.397Z,100.00
2024-04-21T04:51:51.984Z,100.00
2024-04-21T04:54:19.014Z,100.00
2024-04-21T04:56:48.868Z,100.00
2024-04-21T04:59:16.357Z,100.00
2024-04-21T05:01:46.325Z,100.00
2024-04-21T05:04:13.642Z,100.00
2024-04-21T05:06:45.997Z,100.00
2024-04-21T05:09:13.228Z,100.00
2024-04-21T05:11:43.309Z,100.00
2024-04-21T05:14:10.161Z,100.00
2024-04-21T05:16:40.482Z,100.00
2024-04-21T05:19:10.366Z,100.00
2024-04-21T05:21:37.204Z,100.00
2024-04-21T05:24:10.350Z,100.00
2024-04-21T05:26:37.171Z,100.00
2024-04-21T05:29:07.224Z,100.00
2024-04-21T05:31:34.393Z,100.00
2024-04-21T05:34:03.988Z,100.00
2024-04-21T05:36:30.888Z,100.00
2024-04-21T05:39:00.801Z,100.00
2024-04-21T05:41:30.284Z,100.00
2024-04-21T05:44:00.205Z,100.00
2024-04-21T05:46:27.517Z,100.00
2024-04-21T05:48:57.377Z,99.07
2024-04-21T05:51:24.688Z,99.37
2024-04-21T05:53:56.451Z,98.89
2024-04-21T05:56:24.790Z,98.23
2024-04-21T05:58:57.238Z,99.19
2024-04-21T06:01:24.515Z,97.83
2024-04-21T06:03:54.374Z,98.17
2024-04-21T06:06:23.311Z,94.78
2024-04-21T06:08:53.547Z,93.89
2024-04-21T06:11:20.648Z,93.49
2024-04-21T06:13:50.724Z,93.65
2024-04-21T06:16:20.745Z,92.39
2024-04-21T06:18:51.419Z,89.18
2024-04-21T06:21:18.698Z,87.79
2024-04-21T06:23:49.123Z,87.91
2024-04-21T06:26:16.288Z,89.81
2024-04-21T06:28:45.877Z,91.99
2024-04-21T06:31:13.472Z,92.46
2024-04-21T06:33:46.006Z,91.75
2024-04-21T06:36:13.488Z,90.57
2024-04-21T06:38:43.390Z,88.51
2024-04-21T06:41:12.687Z,89.56
2024-04-21T06:43:42.403Z,88.38
2024-04-21T06:46:09.739Z,86.36
2024-04-21T06:48:39.842Z,86.57
2024-04-21T06:51:09.785Z,86.08
2024-04-21T06:53:40.007Z,83.36
2024-04-21T06:56:07.865Z,81.54
2024-04-21T06:58:37.588Z,80.84
2024-04-21T07:01:05.560Z,80.71
2024-04-21T07:03:36.227Z,79.64
2024-04-21T07:06:04.152Z,78.97
2024-04-21T07:08:36.618Z,79.95
2024-04-21T07:11:06.636Z,79.21
2024-04-21T07:13:37.296Z,79.12
2024-04-21T07:16:04.645Z,80.08
2024-04-21T07:18:34.470Z,77.64
2024-04-21T07:21:02.427Z,75.60
2024-04-21T07:23:32.522Z,74.70
2024-04-21T07:26:04.627Z,74.40
2024-04-21T07:28:34.806Z,76.29
2024-04-21T07:31:01.991Z,75.12
2024-04-21T07:33:31.790Z,71.29
2024-04-21T07:35:59.326Z,71.78
2024-04-21T07:38:29.143Z,72.36
2024-04-21T07:40:56.501Z,72.83
2024-04-21T07:43:29.324Z,72.04
2024-04-21T07:46:02.957Z,69.64
2024-04-21T07:48:33.233Z,70.22
2024-04-21T07:51:01.000Z,69.83
2024-04-21T07:53:30.673Z,70.67
2024-04-21T07:55:57.746Z,69.89
2024-04-21T07:58:30.961Z,70.72
2024-04-21T08:00:58.184Z,70.46
2024-04-21T08:03:28.830Z,68.67
2024-04-21T08:05:56.150Z,69.12
2024-04-21T08:08:26.389Z,70.79
2024-04-21T08:11:03.463Z,71.47
2024-04-21T08:13:37.773Z,71.92
2024-04-21T08:16:05.557Z,69.82
2024-04-21T08:18:35.761Z,68.98
2024-04-21T08:21:03.229Z,68.85
2024-04-21T08:23:33.630Z,66.56
2024-04-21T08:26:04.170Z,66.58
2024-04-21T08:28:36.991Z,66.68
2024-04-21T08:31:05.177Z,66.79
2024-04-21T08:33:35.542Z,64.80
2024-04-21T08:36:02.909Z,64.43
2024-04-21T08:38:32.604Z,63.90
2024-04-21T08:41:09.652Z,62.86
2024-04-21T08:43:43.295Z,63.01
2024-04-21T08:46:11.188Z,64.26
2024-04-21T08:48:42.314Z,64.53
2024-04-21T08:51:11.607Z,64.17
2024-04-21T08:53:42.445Z,61.25
2024-04-21T08:56:17.062Z,60.62
2024-04-21T08:58:51.276Z,59.51
2024-04-21T09:01:20.014Z,60.77
2024-04-21T09:03:52.673Z,59.35
2024-04-21T09:06:24.190Z,60.10
2024-04-21T09:08:54.360Z,61.00
2024-04-21T09:11:22.047Z,61.38
2024-04-21T09:13:55.053Z,61.05
2024-04-21T09:16:22.769Z,60.58
2024-04-21T09:18:52.536Z,58.82
2024-04-21T09:21:19.689Z,59.16
2024-04-21T09:23:49.736Z,58.27
2024-04-21T09:26:20.077Z,58.16
2024-04-21T09:28:59.986Z,57.99
2024-04-21T09:31:28.244Z,59.82
2024-04-21T09:34:03.659Z,58.42
2024-04-21T09:36:30.936Z,58.13
2024-04-21T09:39:04.490Z,58.81
2024-04-21T09:41:33.637Z,59.93
2024-04-21T09:44:10.326Z,57.75
2024-04-21T09:46:39.406Z,58.95
2024-04-21T09:49:10.775Z,59.98
2024-04-21T09:51:38.209Z,59.35
2024-04-21T09:54:09.456Z,58.04
2024-04-21T09:56:41.313Z,61.18
2024-04-21T09:59:14.724Z,60.48
2024-04-21T10:01:42.948Z,60.05
2024-04-21T10:04:22.667Z,60.87
2024-04-21T10:06:50.558Z,60.98
2024-04-21T10:09:21.341Z,59.11
2024-04-21T10:11:48.996Z,59.61
2024-04-21T10:14:21.761Z,60.14
2024-04-21T10:16:49.428Z,59.24
2024-04-21T10:19:27.281Z,59.53
2024-04-21T10:21:54.829Z,60.46
2024-04-21T10:24:24.804Z,61.10
2024-04-21T10:26:59.843Z,61.65
2024-04-21T10:29:35.484Z,59.58
2024-04-21T10:32:13.779Z,58.00
2024-04-21T10:34:51.404Z,57.44
2024-04-21T10:37:22.387Z,57.32
2024-04-21T10:39:52.259Z,59.38
2024-04-21T10:42:19.899Z,60.37
2024-04-21T10:44:53.408Z,59.44
2024-04-21T10:47:20.586Z,59.67
2024-04-21T10:49:53.212Z,59.04
2024-04-21T10:52:21.702Z,58.89
2024-04-21T10:54:51.987Z,60.57
2024-04-21T10:57:19.106Z,60.31
2024-04-21T10:59:49.031Z,59.85
2024-04-21T11:02:18.977Z,58.46
2024-04-21T11:04:48.603Z,61.84
2024-04-21T11:07:17.642Z,61.22
2024-04-21T11:09:47.749Z,61.79
2024-04-21T11:12:18.063Z,63.38
2024-04-21T11:14:49.568Z,62.58
2024-04-21T11:17:19.236Z,60.67
2024-04-21T11:19:50.602Z,59.53
2024-04-21T11:22:19.685Z,58.74
2024-04-21T11:24:50.421Z,58.43
2024-04-21T11:27:18.069Z,59.32
2024-04-21T11:29:51.244Z,58.64
2024-04-21T11:32:22.130Z,58.96
2024-04-21T11:34:52.016Z,58.83
2024-04-21T11:37:21.059Z,58.55
2024-04-21T11:39:50.871Z,58.96
2024-04-21T11:42:18.684Z,59.38
2024-04-21T11:44:48.267Z,60.27
2024-04-21T11:47:23.686Z,59.57
2024-04-21T11:49:53.781Z,60.53
2024-04-21T11:52:22.015Z,58.08
2024-04-21T11:54:52.199Z,59.36
2024-04-21T11:57:20.250Z,61.31
2024-04-21T11:59:50.651Z,61.82
2024-04-21T12:02:18.093Z,61.93
2024-04-21T12:04:50.921Z,62.24
2024-04-21T12:07:23.946Z,56.89
2024-04-21T12:09:53.930Z,54.91
2024-04-21T12:12:21.303Z,55.36
2024-04-21T12:14:50.930Z,55.01
2024-04-21T12:17:20.611Z,52.57
2024-04-21T12:19:54.626Z,55.80
2024-04-21T12:22:21.734Z,56.28
2024-04-21T12:24:51.434Z,56.45
2024-04-21T12:27:18.696Z,57.29
2024-04-21T12:29:48.821Z,57.06
2024-04-21T12:32:16.164Z,59.25
2024-04-21T12:34:46.338Z,55.69
2024-04-21T12:37:15.969Z,58.23
2024-04-21T12:39:45.925Z,57.19
2024-04-21T12:42:12.868Z,56.47
2024-04-21T12:44:42.766Z,56.29
2024-04-21T12:47:10.690Z,57.43
2024-04-21T12:49:40.694Z,56.79
2024-04-21T12:52:08.340Z,56.81
2024-04-21T12:54:40.672Z,55.79
2024-04-21T12:57:07.964Z,56.52
2024-04-21T12:59:38.619Z,56.81
2024-04-21T13:02:06.322Z,57.67
2024-04-21T13:04:35.950Z,59.25
2024-04-21T13:07:03.287Z,59.29
2024-04-21T13:09:33.279Z,59.45
2024-04-21T13:12:03.189Z,60.40
2024-04-21T13:14:33.114Z,61.69
2024-04-21T13:17:00.558Z,59.67
2024-04-21T13:19:30.328Z,60.25
2024-04-21T13:21:57.452Z,62.00
2024-04-21T13:24:27.096Z,63.33
2024-04-21T13:26:54.490Z,63.69
2024-04-21T13:29:26.764Z,63.79
2024-04-21T13:31:55.245Z,63.30
2024-04-21T13:34:24.954Z,63.21
2024-04-21T13:36:51.930Z,62.64
2024-04-21T13:39:21.570Z,61.61
2024-04-21T13:41:48.464Z,61.64
2024-04-21T13:44:18.620Z,63.68
2024-04-21T13:46:48.245Z,62.91
2024-04-21T13:49:18.416Z,61.78
2024-04-21T13:51:45.795Z,62.57
2024-04-21T13:54:15.457Z,62.21
2024-04-21T13:56:42.950Z,61.62
2024-04-21T13:59:12.943Z,59.50
2024-04-21T14:01:40.169Z,58.13
2024-04-21T14:04:12.878Z,59.33
2024-04-21T14:06:39.818Z,59.73
2024-04-21T14:09:10.324Z,60.72
2024-04-21T14:11:37.281Z,58.13
2024-04-21T14:14:07.000Z,57.78
2024-04-21T14:16:34.449Z,54.77
2024-04-21T14:19:05.980Z,54.52
2024-04-21T14:21:35.607Z,56.34
2024-04-21T14:24:05.369Z,53.53
2024-04-21T14:26:32.357Z,52.27
2024-04-21T14:29:02.304Z,56.74
2024-04-21T14:31:29.399Z,55.19
2024-04-21T14:33:59.594Z,51.92
2024-04-21T14:36:28.485Z,51.46
2024-04-21T14:39:01.784Z,52.27
2024-04-21T14:41:28.695Z,52.15
2024-04-21T14:43:58.385Z,52.63
2024-04-21T14:46:25.815Z,52.92
2024-04-21T14:48:55.516Z,54.46
2024-04-21T14:51:22.824Z,55.38
2024-04-21T14:53:52.915Z,57.11
2024-04-21T14:56:24.700Z,56.19
2024-04-21T14:58:54.365Z,55.12
2024-04-21T15:01:21.439Z,57.28
2024-04-21T15:03:51.954Z,58.53
2024-04-21T15:06:19.528Z,56.96
2024-04-21T15:08:50.592Z,57.81
2024-04-21T15:11:17.694Z,59.22
2024-04-21T15:13:50.627Z,62.81
2024-04-21T15:16:17.647Z,68.71
2024-04-21T15:18:47.357Z,74.17
2024-04-21T15:21:14.739Z,79.34
2024-04-21T15:23:44.757Z,78.49
2024-04-21T15:26:11.736Z,78.16
2024-04-21T15:28:41.382Z,79.78
2024-04-21T15:31:11.391Z,81.92
2024-04-21T15:33:41.044Z,83.47
2024-04-21T15:36:08.522Z,85.47
2024-04-21T15:38:38.084Z,86.49
2024-04-21T15:41:05.082Z,88.59
2024-04-21T15:43:35.466Z,90.07
2024-04-21T15:46:02.680Z,90.25
2024-04-21T15:48:35.201Z,91.46
2024-04-21T15:51:05.671Z,92.65
2024-04-21T15:53:35.339Z,93.84
2024-04-21T15:56:03.782Z,94.62
2024-04-21T15:58:33.743Z,95.55
2024-04-21T16:01:00.868Z,96.33
2024-04-21T16:03:30.672Z,97.43
2024-04-21T16:06:00.279Z,98.73
2024-04-21T16:08:31.698Z,100.00
2024-04-21T16:10:58.727Z,100.00
2024-04-21T16:13:28.465Z,99.76
2024-04-21T16:15:55.610Z,100.00
2024-04-21T16:18:25.955Z,99.88
2024-04-21T16:20:53.367Z,100.00
2024-04-21T16:23:26.001Z,100.00
2024-04-21T16:25:53.721Z,100.00
2024-04-21T16:28:23.390Z,100.00
2024-04-21T16:30:50.798Z,100.00
2024-04-21T16:33:20.687Z,100.00
2024-04-21T16:35:48.693Z,100.00
2024-04-21T16:38:18.910Z,100.00
2024-04-21T16:40:49.735Z,100.00
2024-04-21T16:43:19.931Z,100.00
2024-04-21T16:45:54.823Z,100.00
2024-04-21T16:48:26.665Z,100.00
2024-04-21T16:50:54.951Z,100.00
2024-04-21T16:53:25.795Z,100.00
2024-04-21T16:55:57.726Z,100.00
2024-04-21T16:58:32.945Z,100.00
2024-04-21T17:01:02.742Z,100.00
2024-04-21T17:03:33.554Z,100.00
2024-04-21T17:06:03.340Z,100.00
2024-04-21T17:08:37.417Z,100.00
2024-04-21T17:11:08.407Z,100.00
2024-04-21T17:13:39.879Z,100.00
2024-04-21T17:16:08.147Z,100.00
2024-04-21T17:18:40.271Z,100.00
2024-04-21T17:21:07.946Z,100.00
2024-04-21T17:23:38.759Z,100.00
2024-04-21T17:26:08.684Z,100.00
2024-04-21T17:28:39.067Z,100.00
2024-04-21T17:31:06.489Z,100.00
2024-04-21T17:33:36.540Z,100.00
2024-04-21T17:36:04.966Z,100.00
2024-04-21T17:38:34.967Z,100.00
2024-04-21T17:41:02.747Z,100.00
2024-04-21T17:43:35.896Z,100.00
2024-04-21T17:46:03.421Z,100.00
2024-04-21T17:48:33.929Z,100.00
2024-04-21T17:51:01.280Z,100.00
2024-04-21T17:53:31.278Z,100.00
2024-04-21T17:55:58.745Z,100.00
2024-04-21T17:58:28.857Z,100.00
2024-04-21T18:00:59.318Z,100.00
2024-04-21T18:03:29.523Z,100.00
2024-04-21T18:05:56.879Z,100.00
2024-04-21T18:08:27.306Z,100.00
2024-04-21T18:10:55.805Z,100.00
2024-04-21T18:13:26.036Z,100.00
2024-04-21T18:15:54.272Z,100.00
2024-04-21T18:18:27.301Z,100.00
2024-04-21T18:20:55.114Z,100.00
2024-04-21T18:23:25.067Z,100.00
2024-04-21T18:25:52.790Z,100.00
2024-04-21T18:28:22.790Z,100.00
2024-04-21T18:30:50.965Z,100.00
2024-04-21T18:33:21.661Z,100.00
2024-04-21T18:35:56.888Z,100.00
2024-04-21T18:38:27.498Z,100.00
2024-04-21T18:40:55.379Z,100.00
2024-04-21T18:43:25.287Z,100.00
2024-04-21T18:45:52.621Z,100.00
2024-04-21T18:48:23.062Z,100.00
2024-04-21T18:50:52.947Z,100.00
2024-04-21T18:53:23.889Z,100.00
2024-04-21T18:55:51.255Z,100.00
2024-04-21T18:58:21.514Z,99.58
2024-04-21T19:00:48.517Z,99.11
2024-04-21T19:03:18.185Z,97.91
2024-04-21T19:05:45.622Z,97.90
2024-04-21T19:08:18.066Z,97.07
2024-04-21T19:10:45.822Z,96.30
2024-04-21T19:13:17.227Z,95.75
2024-04-21T19:15:45.245Z,93.31
2024-04-21T19:18:15.634Z,92.56
2024-04-21T19:20:43.862Z,92.06
2024-04-21T19:23:14.614Z,91.65
2024-04-21T19:25:46.967Z,91.07
2024-04-21T19:28:14.873Z,89.07
2024-04-21T19:30:44.504Z,89.68
2024-04-21T19:33:11.589Z,90.00
2024-04-21T19:35:42.644Z,90.39
2024-04-21T19:38:09.579Z,89.58
2024-04-21T19:40:39.367Z,89.54
2024-04-21T19:43:09.614Z,89.84
2024-04-21T19:45:39.194Z,89.04
2024-04-21T19:48:07.520Z,89.13
2024-04-21T19:50:37.596Z,88.00
2024-04-21T19:53:04.900Z,86.97
2024-04-21T19:55:34.938Z,87.30
2024-04-21T19:58:02.048Z,87.99
2024-04-21T20:00:34.809Z,87.03
2024-04-21T20:03:04.482Z,87.08
2024-04-21T20:05:39.335Z,86.92
2024-04-21T20:08:07.456Z,86.91
2024-04-21T20:10:37.202Z,86.76
2024-04-21T20:13:04.880Z,85.95
2024-04-21T20:15:53.291Z,86.14
2024-04-21T20:18:45.056Z,84.90
2024-04-21T20:21:14.843Z,85.47
2024-04-21T20:23:44.494Z,85.12
2024-04-21T20:26:19.695Z,84.13
2024-04-21T20:28:49.704Z,84.13
2024-04-21T20:31:20.859Z,83.64
2024-04-21T20:33:51.104Z,83.73
2024-04-21T20:36:19.577Z,81.68
2024-04-21T20:38:49.720Z,82.89
2024-04-21T20:41:19.785Z,82.02
2024-04-21T20:43:50.199Z,83.01
2024-04-21T20:46:22.630Z,83.63
2024-04-21T20:48:53.643Z,82.87
2024-04-21T20:51:21.211Z,83.59
2024-04-21T20:53:51.139Z,82.73
2024-04-21T20:56:20.748Z,82.87
2024-04-21T20:58:52.607Z,82.28
2024-04-21T21:01:26.262Z,82.62
2024-04-21T21:03:53.713Z,84.95
2024-04-21T21:06:23.393Z,83.79
2024-04-21T21:08:50.737Z,83.27
2024-04-21T21:11:20.420Z,83.92
2024-04-21T21:13:48.013Z,82.77
2024-04-21T21:16:17.700Z,82.56
2024-04-21T21:18:47.740Z,81.70
2024-04-21T21:21:17.241Z,81.66
2024-04-21T21:23:48.222Z,81.86
2024-04-21T21:26:20.043Z,80.10
2024-04-21T21:28:48.016Z,80.29
2024-04-21T21:31:17.666Z,81.66
2024-04-21T21:33:48.587Z,79.98
2024-04-21T21:36:18.329Z,79.72
2024-04-21T21:38:45.393Z,78.75
2024-04-21T21:41:15.306Z,79.08
2024-04-21T21:43:42.293Z,78.71
2024-04-21T21:46:12.410Z,78.15
2024-04-21T21:48:40.189Z,77.04
2024-04-21T21:51:12.845Z,77.24
2024-04-21T21:53:40.949Z,76.47
2024-04-21T21:56:11.281Z,76.33
2024-04-21T21:58:39.093Z,75.41
2024-04-21T22:01:08.967Z,75.49
2024-04-21T22:03:36.421Z,76.08
2024-04-21T22:06:06.597Z,76.27
2024-04-21T22:08:36.233Z,76.12
2024-04-21T22:11:06.070Z,75.94
2024-04-21T22:13:33.661Z,75.41
2024-04-21T22:16:06.668Z,76.03
2024-04-21T22:18:34.146Z,77.28
2024-04-21T22:21:04.277Z,75.65
2024-04-21T22:23:31.458Z,76.47
2024-04-21T22:26:04.262Z,77.08
2024-04-21T22:28:31.300Z,76.46
2024-04-21T22:31:01.400Z,77.22
2024-04-21T22:33:28.390Z,79.34
2024-04-21T22:35:58.335Z,78.49
2024-04-21T22:38:25.930Z,79.29
2024-04-21T22:40:59.263Z,78.92
2024-04-21T22:43:30.160Z,78.22
2024-04-21T22:46:04.835Z,78.80
2024-04-21T22:48:32.426Z,78.98
2024-04-21T22:51:03.824Z,77.96
2024-04-21T22:53:31.634Z,77.87
2024-04-21T22:56:01.912Z,78.93
2024-04-21T22:58:31.604Z,80.09
2024-04-21T23:01:01.654Z,78.94
2024-04-21T23:03:28.779Z,80.54
2024-04-21T23:06:02.337Z,82.05
2024-04-21T23:08:29.384Z,81.19
2024-04-21T23:11:02.864Z,83.31
2024-04-21T23:13:32.582Z,83.05
2024-04-21T23:16:05.664Z,83.29
2024-04-21T23:18:32.721Z,83.39
2024-04-21T23:21:02.763Z,85.43
2024-04-21T23:23:29.753Z,86.36
2024-04-21T23:25:59.739Z,86.62
2024-04-21T23:28:27.157Z,87.64
2024-04-21T23:30:59.549Z,87.79
2024-04-21T23:33:26.853Z,88.71
2024-04-21T23:35:56.426Z,87.16
2024-04-21T23:38:23.713Z,86.27
2024-04-21T23:40:53.700Z,86.55
2024-04-21T23:43:21.050Z,86.34
2024-04-21T23:45:50.970Z,85.38
2024-04-21T23:48:20.702Z,85.40
2024-04-21T23:50:50.882Z,85.27
2024-04-21T23:53:18.379Z,85.31
2024-04-21T23:55:47.938Z,85.50
2024-04-21T23:58:15.339Z,85.31
